Cache Junction, Utah
Current Conditions -  °F | °C
As of 12:51 PM on Wednesday 17 Dec 2014 (Local Time) from KLGU Reporting Station
Clear Clear  
Wind Chill: 39°   Ceiling: Unl
Heat Index: 39°   Visibility: 10mi
Dew Point: 28°   Wind: 0mph
Humidity: 65%   Direction: NA
Pressure: 29.98"   Gusts: NA
Location:  41.84°N, 112.01°W
Report Text: KLGU 171951Z AUTO 00000KT 10SM CLR 04/M02 A2998 RMK AO2 SLP157 T00391022
Loading
Personal Weather Stations






























Interactive Weather Map New forecast layout! Learn more

10-Day Weather Forecast

Advertisements
Track Severe Weather on mobile